Time;durP1;ratioP1;P1;durP2;ratioP2;P2;SDS_P1;SDS_P2;PMS_P1;PMS_P2;Temp;Humidity;BMP_temperature;BMP_pressure;BME280_temperature;BME280_humidity;BME280_pressure;Samples;Min_cycle;Max_cycle;Signal;HPM_P1;HPM_P2
2022/01/11 00:11:27;;;;;;;13.27;5.60;;;;;;;-1.24;70.00;100278.81;6323885;22;20091;-85
2022/01/11 06:28:47;;;;;;;11.75;5.63;;;;;;;-2.22;65.51;100573.97;6157660;23;20438;-86
2022/01/11 06:47:23;;;;;;;12.27;5.38;;;;;;;-1.52;64.12;100709.38;6290608;22;20026;-85
2022/01/11 07:01:07;;;;;;;13.63;5.25;;;;;;;-3.14;63.90;100481.34;6295654;22;20024;-85
2022/01/11 07:08:03;;;;;;;14.73;5.13;;;;;;;-1.34;64.65;100734.72;6273553;22;20019;-86
2022/01/11 09:43:50;;;;;;;12.50;5.10;;;;;;;0.70;52.78;100574.44;6262123;22;20053;-84
2022/01/11 09:54:34;;;;;;;13.25;5.60;;;;;;;1.95;52.55;100718.38;6278199;22;20031;-80
2022/01/11 09:57:54;;;;;;;14.15;5.47;;;;;;;2.11;51.84;100720.91;6191571;22;20023;-90
2022/01/11 10:14:38;;;;;;;12.98;5.32;;;;;;;2.68;51.49;100753.94;6259472;22;20031;-88
2022/01/11 10:17:20;;;;;;;16.35;5.30;;;;;;;2.42;51.33;100662.81;6253339;23;20016;-89
2022/01/11 10:20:14;;;;;;;13.25;5.38;;;;;;;2.59;50.67;100680.41;6222195;23;20347;-88
2022/01/11 10:31:11;;;;;;;12.65;5.13;;;;;;;3.30;50.86;100782.09;6279407;22;20034;-87
2022/01/11 10:45:35;;;;;;;12.18;5.22;;;;;;;3.65;49.07;100788.69;6233066;22;20015;-88
2022/01/11 10:49:07;;;;;;;10.18;4.78;;;;;;;3.07;49.37;100678.44;6267076;22;20031;-84
2022/01/11 10:55:49;;;;;;;13.70;5.22;;;;;;;3.81;48.95;100806.28;6229468;22;20015;-90
2022/01/11 10:59:12;;;;;;;15.95;6.00;;;;;;;3.33;49.29;100690.53;6256350;22;20022;-88
2022/01/11 11:01:48;;;;;;;12.50;4.90;;;;;;;3.90;48.87;100776.38;6227779;22;20043;-91
2022/01/11 11:04:38;;;;;;;9.77;4.60;;;;;;;3.59;48.90;100753.13;6179043;22;20016;-93
2022/01/11 11:08:09;;;;;;;10.65;5.00;;;;;;;3.94;48.55;100813.56;6277316;22;20015;-87
2022/01/11 11:11:00;;;;;;;13.18;5.35;;;;;;;4.03;49.24;100808.91;6228190;22;20030;-90
2022/01/11 11:13:36;;;;;;;10.80;4.82;;;;;;;3.74;48.58;100753.75;6277082;22;20098;-93
2022/01/11 11:16:15;;;;;;;11.02;4.97;;;;;;;3.84;48.46;100776.09;6251046;22;20351;-92
2022/01/11 11:18:52;;;;;;;13.35;5.38;;;;;;;4.04;48.63;100807.25;6251034;22;20435;-88
2022/01/11 11:21:32;;;;;;;14.15;5.65;;;;;;;3.51;48.27;100729.19;6251208;22;20039;-89
2022/01/11 11:24:10;;;;;;;15.18;5.10;;;;;;;4.21;48.26;100788.66;6226168;22;20015;-89
2022/01/11 11:26:49;;;;;;;17.10;5.90;;;;;;;4.24;48.17;100777.81;6250441;22;20098;-89
2022/01/11 11:29:28;;;;;;;15.52;5.65;;;;;;;4.55;48.26;100776.63;6252113;22;20016;-87
2022/01/11 11:32:19;;;;;;;13.32;5.35;;;;;;;5.08;47.86;100815.81;6227698;22;20023;-86
2022/01/11 11:34:53;;;;;;;15.10;5.95;;;;;;;4.72;47.50;100762.13;6253394;22;20098;-85
2022/01/11 11:37:38;;;;;;;12.55;5.75;;;;;;;4.48;47.92;100779.69;6279586;22;20103;-89
2022/01/11 11:40:14;;;;;;;17.23;6.35;;;;;;;4.92;47.68;100804.22;6279600;22;20022;-89
2022/01/11 11:42:46;;;;;;;12.93;6.50;;;;;;;4.78;47.30;100748.84;6279413;22;20027;-88
2022/01/11 11:45:20;;;;;;;13.98;6.28;;;;;;;4.92;47.67;100743.50;6252382;22;20016;-87
2022/01/11 11:47:51;;;;;;;11.25;5.20;;;;;;;4.59;47.28;100706.81;6279054;22;20047;-88
2022/01/11 11:50:26;;;;;;;13.18;5.40;;;;;;;4.99;47.16;100800.28;6253372;22;20019;-89
2022/01/11 11:53:28;;;;;;;12.65;5.68;;;;;;;4.23;46.95;100669.94;6230007;22;20027;-89
2022/01/11 11:56:25;;;;;;;11.73;5.10;;;;;;;5.01;46.90;100799.53;6252443;22;20404;-91
2022/01/11 11:58:59;;;;;;;16.50;6.18;;;;;;;4.35;47.19;100686.47;6252268;22;20012;-90
2022/01/11 12:01:41;;;;;;;11.27;5.30;;;;;;;4.98;46.76;100789.31;6278686;22;20023;-88
2022/01/11 12:04:16;;;;;;;9.85;4.97;;;;;;;4.98;46.85;100793.50;6252781;22;20041;-90
2022/01/11 12:06:52;;;;;;;13.98;6.00;;;;;;;4.49;47.39;100675.25;6252687;22;20015;-88
2022/01/11 12:09:31;;;;;;;12.77;5.53;;;;;;;5.36;47.10;100778.97;6279880;22;20020;-89
2022/01/11 12:12:04;;;;;;;11.63;5.72;;;;;;;5.36;46.99;100768.84;6252313;22;20030;-90
2022/01/11 12:14:41;;;;;;;16.38;5.85;;;;;;;4.98;46.22;100741.25;6278683;22;20015;-91
2022/01/11 12:17:25;;;;;;;10.70;5.35;;;;;;;5.49;46.57;100792.97;6227579;22;20016;-87
2022/01/11 12:19:56;;;;;;;12.43;5.53;;;;;;;5.55;46.32;100739.13;6279372;22;20039;-93
2022/01/11 12:22:40;;;;;;;9.25;4.82;;;;;;;6.13;46.10;100786.03;6252371;22;20016;-90
2022/01/11 12:25:41;;;;;;;11.43;5.40;;;;;;;6.23;45.26;100784.66;6280082;22;20047;-89
2022/01/11 12:28:22;;;;;;;14.57;5.55;;;;;;;6.45;44.93;100776.97;6175579;22;20020;-91
2022/01/11 12:31:22;;;;;;;11.35;5.07;;;;;;;6.90;44.34;100775.06;6227569;22;20028;-90
2022/01/11 12:33:52;;;;;;;12.15;6.72;;;;;;;7.37;43.47;100782.44;6279508;22;20019;-91
2022/01/11 12:36:52;;;;;;;9.70;4.90;;;;;;;7.71;42.45;100786.81;6253387;22;20066;-89
2022/01/11 12:39:27;;;;;;;11.00;5.40;;;;;;;8.23;42.17;100797.59;6252244;22;20031;-91
2022/01/11 12:42:01;;;;;;;12.32;5.38;;;;;;;7.93;40.67;100749.34;6253744;22;20046;-92
2022/01/11 12:45:35;;;;;;;14.98;5.40;;;;;;;7.95;40.24;100755.34;6279760;22;20030;-92
2022/01/11 12:50:27;;;;;;;11.25;4.70;;;;;;;8.10;40.20;100793.88;6217404;23;20028;-91
2022/01/11 12:53:00;;;;;;;9.32;4.47;;;;;;;7.45;40.73;100760.69;6192212;23;20021;-91
2022/01/11 12:55:30;;;;;;;10.23;5.18;;;;;;;7.59;41.19;100802.59;6217379;23;20044;-90
2022/01/11 12:58:05;;;;;;;19.13;6.07;;;;;;;6.92;41.90;100730.28;6216884;23;20070;-91
2022/01/11 13:00:35;;;;;;;10.88;5.13;;;;;;;6.60;42.18;100802.84;6207789;23;20013;-90
2022/01/11 13:03:07;;;;;;;11.85;5.43;;;;;;;6.10;43.21;100780.84;6214185;23;20047;-90
2022/01/11 13:05:40;;;;;;;14.25;5.75;;;;;;;5.69;44.00;100753.16;6187892;23;20020;-91
2022/01/11 13:08:31;;;;;;;12.85;5.15;;;;;;;5.38;44.76;100812.81;6238506;23;20104;-92
2022/01/11 13:11:01;;;;;;;9.68;4.97;;;;;;;4.84;45.60;100766.78;6186725;23;20027;-91
2022/01/11 13:13:41;;;;;;;14.73;6.00;;;;;;;4.92;45.94;100824.44;6208875;23;20025;-91
2022/01/11 13:16:22;;;;;;;11.98;5.90;;;;;;;3.86;46.11;100668.44;6169469;23;20020;-92
2022/01/11 13:18:53;;;;;;;10.27;4.82;;;;;;;4.37;46.94;100800.25;6215712;23;20083;-92
2022/01/11 13:21:34;;;;;;;11.05;4.60;;;;;;;4.34;47.27;100820.34;6246990;22;20038;-91
2022/01/11 13:24:22;;;;;;;13.25;5.53;;;;;;;4.03;47.29;100792.94;6254570;22;20051;-93
2022/01/11 13:26:55;;;;;;;13.93;5.55;;;;;;;3.98;47.90;100809.53;6279995;22;20046;-94
2022/01/11 13:29:29;;;;;;;9.10;4.82;;;;;;;3.92;48.40;100830.31;6280171;22;20023;-92
2022/01/11 13:32:01;;;;;;;11.25;5.95;;;;;;;3.45;48.76;100754.16;6204000;22;20024;-94
2022/01/11 13:34:41;;;;;;;11.85;6.00;;;;;;;3.78;48.99;100826.34;6288282;22;20046;-90
2022/01/11 13:37:44;;;;;;;11.00;5.22;;;;;;;3.52;49.32;100791.50;6283643;22;20024;-93
2022/01/11 13:51:55;;;;;;;9.68;4.55;;;;;;;2.77;51.07;100747.59;6342313;22;20026;-89
2022/01/11 13:54:33;;;;;;;11.07;5.40;;;;;;;2.43;51.08;100715.75;6339965;22;20027;-88
2022/01/11 13:57:07;;;;;;;17.17;5.57;;;;;;;3.11;50.89;100847.59;6339980;22;20015;-88
2022/01/11 13:59:39;;;;;;;10.18;4.90;;;;;;;2.35;51.09;100722.06;6312684;22;20023;-87
2022/01/11 14:02:16;;;;;;;16.20;5.60;;;;;;;2.35;51.64;100714.53;6312726;22;20019;-87
2022/01/11 14:04:51;;;;;;;10.32;4.88;;;;;;;2.39;51.79;100713.91;6339930;22;20068;-87
2022/01/11 14:07:27;;;;;;;12.07;5.00;;;;;;;2.73;51.46;100785.25;6339692;22;20023;-87
2022/01/11 14:10:02;;;;;;;12.88;5.85;;;;;;;2.92;51.63;100812.22;6312948;22;20018;-87
2022/01/11 14:12:43;;;;;;;11.05;5.22;;;;;;;2.97;52.30;100832.59;6313406;22;20014;-88
2022/01/11 14:15:31;;;;;;;10.32;4.95;;;;;;;2.15;52.00;100717.75;6294142;22;20018;-89
2022/01/11 14:18:03;;;;;;;13.45;5.60;;;;;;;2.28;51.97;100724.25;6340651;22;20015;-90
2022/01/11 14:20:35;;;;;;;12.98;5.38;;;;;;;2.51;52.21;100780.00;6338700;22;20018;-91
2022/01/11 14:23:30;;;;;;;11.38;5.47;;;;;;;2.28;52.53;100755.31;6263370;22;20070;-91
2022/01/11 14:29:59;;;;;;;12.10;4.93;;;;;;;2.02;52.78;100730.50;6277930;22;20019;-89
2022/01/11 14:32:55;;;;;;;10.70;4.47;;;;;;;2.38;52.61;100807.88;6282838;22;20022;-88
2022/01/11 14:35:31;;;;;;;11.75;4.70;;;;;;;2.37;52.72;100816.22;6227255;22;20110;-89
2022/01/11 14:38:05;;;;;;;9.40;4.38;;;;;;;2.58;53.20;100856.72;6176341;22;20391;-91
2022/01/11 14:44:58;;;;;;;;;;;;;;;2.50;52.64;100858.88;6185901;23;20072;-87
2022/01/11 14:47:42;;;;;;;;;;;;;;;2.54;53.17;100858.22;6136364;23;19923;-88
2022/01/11 14:50:22;;;;;;;9.30;4.30;;;;;;;1.53;53.45;100699.50;6089990;23;19924;-89
2022/01/11 14:53:06;;;;;;;8.57;3.55;;;;;;;2.03;53.16;100792.66;6187182;23;20072;-87
2022/01/11 14:55:58;;;;;;;11.48;5.15;;;;;;;0.86;53.46;100602.13;6162134;23;20017;-89
2022/01/11 15:02:51;;;;;;;9.63;4.82;;;;;;;1.67;53.28;100760.56;6290244;22;20101;-88
2022/01/11 15:05:43;;;;;;;8.25;4.43;;;;;;;1.41;53.72;100715.59;6269974;22;20050;-88
2022/01/11 16:46:24;;;;;;;14.68;4.70;;;;;;;0.97;57.41;100965.41;6279824;22;20023;-87
2022/01/11 16:49:01;;;;;;;11.63;5.20;;;;;;;0.79;57.98;100934.22;6292319;22;20015;-90
2022/01/11 16:55:42;;;;;;;12.98;4.68;;;;;;;-0.36;58.91;100783.41;6275313;22;20035;-87
2022/01/11 16:58:15;;;;;;;14.13;5.80;;;;;;;0.51;58.41;100928.34;6252864;22;20011;-89
2022/01/11 17:12:35;;;;;;;14.95;4.88;;;;;;;0.41;60.07;100991.34;6295558;22;20035;-90
2022/01/11 17:15:08;;;;;;;13.55;5.65;;;;;;;0.29;59.33;101005.69;6263308;22;20020;-90
2022/01/11 17:17:40;;;;;;;9.65;4.47;;;;;;;-0.28;60.28;100923.53;6247462;22;20336;-88
2022/01/11 17:26:50;;;;;;;10.20;4.50;;;;;;;-0.50;61.28;100932.13;6287122;22;20059;-92
2022/01/11 17:29:23;;;;;;;12.73;4.97;;;;;;;-0.64;61.10;100911.19;6264491;22;20069;-91
2022/01/11 17:31:58;;;;;;;14.02;5.28;;;;;;;-0.72;61.16;100899.84;6256456;22;20011;-91
2022/01/11 20:41:42;;;;;;;;;;;;;;;-1.19;62.10;101133.81;6189068;23;20534;-85
2022/01/11 20:45:09;;;;;;;8.57;3.47;;;;;;;-1.59;62.18;101058.50;6188060;23;19939;-85
